Time;durP1;ratioP1;P1;durP2;ratioP2;P2;SDS_P1;SDS_P2;PMS_P1;PMS_P2;Temp;Humidity;BMP_temperature;BMP_pressure;BME280_temperature;BME280_humidity;BME280_pressure;Samples;Min_cycle;Max_cycle;Signal;HPM_P1;HPM_P2
2022/03/24 00:02:12;;;;;;;65.75;40.25;;;8.40;99.90;;;;;;5073764;28;20093;-61
2022/03/24 00:04:37;;;;;;;71.60;43.83;;;8.30;99.90;;;;;;5073544;28;20115;-61
2022/03/24 00:07:04;;;;;;;58.20;39.38;;;8.30;99.90;;;;;;5073439;28;20127;-61
2022/03/24 00:09:29;;;;;;;63.92;41.67;;;8.30;99.90;;;;;;5055920;28;20076;-61
2022/03/24 00:11:55;;;;;;;67.10;43.90;;;8.20;99.90;;;;;;5073661;28;20086;-61
2022/03/24 00:14:21;;;;;;;69.55;45.20;;;8.20;99.90;;;;;;5073436;28;20470;-61
2022/03/24 00:16:47;;;;;;;65.63;43.83;;;8.20;99.90;;;;;;5073084;28;20525;-61
2022/03/24 00:19:13;;;;;;;64.32;42.65;;;8.20;99.90;;;;;;5073111;28;20045;-61
2022/03/24 00:21:38;;;;;;;61.08;43.38;;;8.20;99.90;;;;;;5073528;28;20497;-61
2022/03/24 00:24:04;;;;;;;65.90;42.72;;;8.10;99.90;;;;;;5073472;28;20032;-61
2022/03/24 00:26:30;;;;;;;66.35;45.75;;;8.10;99.90;;;;;;5073042;28;20414;-61
2022/03/24 00:28:55;;;;;;;70.18;45.58;;;8.10;99.90;;;;;;5073134;28;20045;-61
2022/03/24 00:31:21;;;;;;;71.45;45.78;;;8.00;99.90;;;;;;5073117;28;20048;-61
2022/03/24 00:33:46;;;;;;;67.13;44.78;;;8.00;99.90;;;;;;5072864;28;20040;-61
2022/03/24 00:36:14;;;;;;;74.97;44.35;;;8.00;99.90;;;;;;5072903;28;20036;-61
2022/03/24 00:38:40;;;;;;;65.63;43.90;;;8.00;99.90;;;;;;5073079;28;20568;-61
2022/03/24 00:41:06;;;;;;;66.43;43.20;;;7.90;99.90;;;;;;5073061;28;20037;-61
2022/03/24 00:43:32;;;;;;;68.78;44.70;;;7.90;99.90;;;;;;5072749;28;20038;-61
2022/03/24 00:45:58;;;;;;;69.35;45.92;;;7.90;99.90;;;;;;5072620;28;20116;-61
2022/03/24 00:48:25;;;;;;;71.20;45.53;;;7.90;99.90;;;;;;5072653;28;20051;-61
2022/03/24 00:50:51;;;;;;;67.40;45.05;;;7.90;99.90;;;;;;5072115;28;20041;-61
2022/03/24 00:53:17;;;;;;;70.53;47.17;;;7.80;99.90;;;;;;5072855;28;20120;-61
2022/03/24 00:55:45;;;;;;;69.45;47.20;;;7.80;99.90;;;;;;5072409;28;20040;-61
2022/03/24 00:58:13;;;;;;;78.63;46.05;;;7.80;99.90;;;;;;5072562;28;20040;-61
2022/03/24 01:00:40;;;;;;;70.50;46.70;;;7.80;99.90;;;;;;5072651;28;20032;-60
2022/03/24 01:03:06;;;;;;;69.35;45.88;;;7.70;99.90;;;;;;5072439;28;20040;-61
2022/03/24 01:05:33;;;;;;;73.82;46.63;;;7.70;99.90;;;;;;5072414;28;20039;-61
2022/03/24 01:07:59;;;;;;;74.97;47.85;;;7.70;99.90;;;;;;5072516;28;20032;-61
2022/03/24 01:10:24;;;;;;;77.00;50.97;;;7.70;99.90;;;;;;5072546;28;20506;-61
2022/03/24 01:12:50;;;;;;;80.20;49.33;;;7.70;99.90;;;;;;5072407;28;20045;-61
2022/03/24 01:15:19;;;;;;;74.68;48.75;;;7.60;99.90;;;;;;5072088;28;20044;-61
2022/03/24 01:17:45;;;;;;;72.20;47.95;;;7.60;99.90;;;;;;5071993;28;20049;-61
2022/03/24 01:20:12;;;;;;;73.95;48.08;;;7.60;99.90;;;;;;5072474;28;20063;-61
2022/03/24 01:22:38;;;;;;;74.43;49.63;;;7.60;99.90;;;;;;5072354;28;20044;-61
2022/03/24 01:25:06;;;;;;;76.85;48.05;;;7.50;99.90;;;;;;5072244;28;20041;-61
2022/03/24 01:27:32;;;;;;;75.53;49.25;;;7.50;99.90;;;;;;5071766;28;20040;-61
2022/03/24 01:29:59;;;;;;;70.78;49.55;;;7.50;99.90;;;;;;5072051;28;20047;-61
2022/03/24 01:32:28;;;;;;;74.00;48.05;;;7.50;99.90;;;;;;5072023;28;20497;-62
2022/03/24 01:34:55;;;;;;;76.60;51.83;;;7.50;99.90;;;;;;5072060;28;20044;-61
2022/03/24 01:37:23;;;;;;;76.65;49.08;;;7.50;99.90;;;;;;5071762;28;20413;-61
2022/03/24 01:39:50;;;;;;;72.63;49.72;;;7.40;99.90;;;;;;5071940;28;20041;-61
2022/03/24 01:42:18;;;;;;;79.18;48.45;;;7.50;99.90;;;;;;5071912;28;20042;-61
2022/03/24 01:44:48;;;;;;;75.68;50.20;;;7.40;99.90;;;;;;5071777;28;20040;-61
2022/03/24 01:47:14;;;;;;;77.78;48.10;;;7.40;99.90;;;;;;5071642;28;20070;-61
2022/03/24 01:49:47;;;;;;;76.80;48.13;;;7.40;99.90;;;;;;5071936;28;20092;-61
2022/03/24 01:52:14;;;;;;;75.60;47.45;;;7.30;99.90;;;;;;5071802;28;20517;-61
2022/03/24 01:54:43;;;;;;;74.43;46.30;;;7.30;99.90;;;;;;5071698;28;20048;-61
2022/03/24 01:57:10;;;;;;;87.50;47.80;;;7.20;99.90;;;;;;5071457;28;20037;-61
2022/03/24 01:59:37;;;;;;;78.78;47.58;;;7.30;99.90;;;;;;5071935;28;20072;-61
2022/03/24 02:02:07;;;;;;;76.65;47.95;;;7.20;99.90;;;;;;5071427;28;20048;-62
2022/03/24 02:04:35;;;;;;;76.47;49.50;;;7.20;99.90;;;;;;5071833;28;20041;-62
2022/03/24 02:07:05;;;;;;;75.57;49.05;;;7.20;99.90;;;;;;5053547;28;20067;-62
2022/03/24 02:09:31;;;;;;;75.25;48.92;;;7.20;99.90;;;;;;5071553;28;20052;-61
2022/03/24 02:11:57;;;;;;;80.25;49.83;;;7.20;99.90;;;;;;5071548;28;20045;-61
2022/03/24 02:14:23;;;;;;;76.75;48.22;;;7.10;99.90;;;;;;5071708;28;20037;-62
2022/03/24 02:16:49;;;;;;;81.88;51.08;;;7.20;99.90;;;;;;5071421;28;20120;-62
2022/03/24 02:19:23;;;;;;;81.60;50.45;;;7.10;99.90;;;;;;5071383;28;20557;-62
2022/03/24 02:21:50;;;;;;;77.68;49.05;;;7.10;99.90;;;;;;5071626;28;20037;-62
2022/03/24 02:24:18;;;;;;;74.90;48.58;;;7.10;99.90;;;;;;5071265;28;20402;-61
2022/03/24 02:26:45;;;;;;;79.93;51.72;;;7.10;99.90;;;;;;5071358;28;20048;-61
2022/03/24 02:29:12;;;;;;;72.88;47.75;;;7.10;99.90;;;;;;5071533;28;20044;-62
2022/03/24 02:31:43;;;;;;;73.90;48.38;;;7.00;99.90;;;;;;5071439;28;20076;-62
2022/03/24 02:37:06;;;;;;;74.85;47.22;;;7.00;99.90;;;;;;5070927;28;20051;-62
2022/03/24 02:39:32;;;;;;;76.03;48.95;;;7.00;99.90;;;;;;5071459;28;20036;-62
2022/03/24 02:42:00;;;;;;;82.13;50.13;;;7.00;99.90;;;;;;5071414;28;20082;-61
2022/03/24 02:44:30;;;;;;;78.07;47.92;;;6.90;99.90;;;;;;5071385;28;20047;-61
2022/03/24 02:46:56;;;;;;;71.82;46.75;;;6.80;99.90;;;;;;5070920;28;20064;-61
2022/03/24 02:49:26;;;;;;;71.95;45.15;;;6.70;99.90;;;;;;5053426;28;20043;-62
2022/03/24 02:51:53;;;;;;;74.63;46.00;;;6.70;99.90;;;;;;5071345;28;20127;-61
2022/03/24 02:54:20;;;;;;;67.60;43.65;;;6.70;99.90;;;;;;5071097;28;20063;-61
2022/03/24 02:56:46;;;;;;;73.30;46.42;;;6.70;99.90;;;;;;5070857;28;20498;-62
2022/03/24 02:59:12;;;;;;;67.90;44.75;;;6.60;99.90;;;;;;5071072;28;20064;-61
2022/03/24 03:01:43;;;;;;;74.82;47.45;;;6.60;99.90;;;;;;5071132;28;20040;-61
2022/03/24 03:04:10;;;;;;;74.75;45.78;;;6.60;99.90;;;;;;5071363;28;20044;-62
2022/03/24 03:06:36;;;;;;;71.93;45.80;;;6.60;99.90;;;;;;5070963;28;20045;-62
2022/03/24 03:09:03;;;;;;;73.85;46.63;;;6.60;99.90;;;;;;5053015;28;20044;-61
2022/03/24 03:11:33;;;;;;;70.97;45.72;;;6.60;99.90;;;;;;5071056;28;20114;-62
2022/03/24 03:13:59;;;;;;;72.75;45.75;;;6.60;99.90;;;;;;5071385;28;20045;-61
2022/03/24 03:16:25;;;;;;;75.13;48.65;;;6.60;99.90;;;;;;5074203;28;20044;-61
2022/03/24 03:18:52;;;;;;;76.93;46.78;;;6.50;99.90;;;;;;5074388;28;20036;-61
2022/03/24 03:21:18;;;;;;;68.45;44.85;;;6.40;99.90;;;;;;5074645;28;20267;-61
2022/03/24 03:23:44;;;;;;;68.10;44.78;;;6.40;99.90;;;;;;5074516;28;20115;-61
2022/03/24 03:26:11;;;;;;;72.45;45.72;;;6.40;99.90;;;;;;5074236;28;20462;-61
2022/03/24 03:28:37;;;;;;;78.45;47.13;;;6.40;99.90;;;;;;5074290;28;20037;-61
2022/03/24 03:31:03;;;;;;;78.93;46.10;;;6.40;99.90;;;;;;5074257;28;20202;-62
2022/03/24 03:33:29;;;;;;;72.70;45.67;;;6.40;99.90;;;;;;5074439;28;20254;-62
2022/03/24 03:35:55;;;;;;;73.03;43.92;;;6.40;99.90;;;;;;5074019;28;20044;-61
2022/03/24 03:38:21;;;;;;;74.80;46.83;;;6.40;99.90;;;;;;5074142;28;20040;-62
2022/03/24 03:40:47;;;;;;;72.63;45.30;;;6.20;99.90;;;;;;5074070;28;20543;-61
2022/03/24 03:43:14;;;;;;;72.00;45.20;;;6.20;99.90;;;;;;5074141;28;20032;-62
2022/03/24 03:45:43;;;;;;;68.00;44.03;;;6.10;99.90;;;;;;5073631;28;20036;-61
2022/03/24 03:48:09;;;;;;;69.45;45.30;;;6.10;99.90;;;;;;5074131;28;20049;-61
2022/03/24 03:50:35;;;;;;;68.82;43.45;;;6.10;99.90;;;;;;5074078;28;20044;-61
2022/03/24 03:53:01;;;;;;;66.97;43.50;;;6.20;99.90;;;;;;5073909;28;20045;-61
2022/03/24 03:55:27;;;;;;;70.00;45.25;;;6.20;99.90;;;;;;5073543;28;20044;-61
2022/03/24 03:57:53;;;;;;;68.22;44.63;;;6.10;99.90;;;;;;5073670;28;20563;-61
2022/03/24 04:03:04;;;;;;;71.00;43.60;;;6.00;99.90;;;;;;5073837;28;20047;-62
2022/03/24 04:05:33;;;;;;;68.20;45.10;;;5.90;99.90;;;;;;5073362;28;20456;-62
2022/03/24 04:07:59;;;;;;;70.45;42.38;;;6.00;99.90;;;;;;5073578;28;20037;-61
2022/03/24 04:10:27;;;;;;;78.10;47.47;;;5.90;99.90;;;;;;5073484;28;20040;-62
2022/03/24 04:12:56;;;;;;;74.43;44.97;;;5.90;99.90;;;;;;5073677;28;20052;-61
2022/03/24 04:15:22;;;;;;;73.82;46.00;;;6.00;99.90;;;;;;5073289;28;20037;-60
2022/03/24 04:17:48;;;;;;;76.75;47.70;;;6.00;99.90;;;;;;5055298;28;20033;-61
2022/03/24 04:20:15;;;;;;;76.57;46.28;;;6.00;99.90;;;;;;5073457;28;20037;-61
2022/03/24 04:22:40;;;;;;;73.00;47.20;;;6.00;99.90;;;;;;5073281;28;20043;-61
2022/03/24 04:25:06;;;;;;;76.47;46.05;;;5.90;99.90;;;;;;5073086;28;20040;-61
2022/03/24 04:27:32;;;;;;;85.47;49.85;;;5.90;99.90;;;;;;5073091;28;20041;-61
2022/03/24 04:29:57;;;;;;;77.78;47.78;;;5.90;99.90;;;;;;5073333;28;20041;-60
2022/03/24 04:32:23;;;;;;;75.72;45.28;;;5.90;99.90;;;;;;5073195;28;20036;-61
2022/03/24 04:34:48;;;;;;;77.32;46.70;;;5.90;99.90;;;;;;5073051;28;20041;-61
2022/03/24 04:37:15;;;;;;;75.80;46.15;;;5.90;99.90;;;;;;5054725;28;20486;-61
2022/03/24 04:39:40;;;;;;;82.18;48.40;;;5.90;99.90;;;;;;5072853;28;20028;-61
2022/03/24 04:42:08;;;;;;;85.13;50.28;;;5.90;99.90;;;;;;5073149;28;20528;-60
2022/03/24 04:44:34;;;;;;;82.45;49.08;;;5.90;99.90;;;;;;5072987;28;20055;-61
2022/03/24 04:47:00;;;;;;;76.45;48.05;;;5.90;99.90;;;;;;5072512;28;20087;-61
2022/03/24 04:49:29;;;;;;;80.47;46.78;;;5.90;99.90;;;;;;5072914;28;20525;-61
2022/03/24 04:51:55;;;;;;;84.28;49.08;;;5.80;99.90;;;;;;5072662;28;20442;-60
2022/03/24 04:54:20;;;;;;;83.68;47.75;;;5.90;99.90;;;;;;5072532;28;20132;-61
2022/03/24 04:56:46;;;;;;;72.68;47.38;;;5.80;99.90;;;;;;5072281;28;20058;-61
2022/03/24 04:59:12;;;;;;;80.10;49.10;;;5.80;99.90;;;;;;5072598;28;20036;-60
2022/03/24 05:01:38;;;;;;;78.45;47.85;;;5.80;99.90;;;;;;5072497;28;20482;-60
2022/03/24 05:04:04;;;;;;;78.00;46.47;;;5.80;99.90;;;;;;5072526;28;20033;-60
2022/03/24 05:06:31;;;;;;;76.18;46.85;;;5.80;99.90;;;;;;5072094;28;20402;-61
2022/03/24 05:08:56;;;;;;;79.38;48.60;;;5.80;99.90;;;;;;5072237;28;20028;-60
2022/03/24 05:11:22;;;;;;;78.00;47.53;;;5.80;99.90;;;;;;5072541;28;20110;-61
2022/03/24 05:13:47;;;;;;;83.38;49.10;;;5.70;99.90;;;;;;5072188;28;20379;-61
2022/03/24 05:16:13;;;;;;;84.05;49.90;;;5.80;99.90;;;;;;5072120;28;20040;-61
2022/03/24 05:18:39;;;;;;;76.97;49.20;;;5.80;99.90;;;;;;5072128;28;20040;-61
2022/03/24 05:21:04;;;;;;;76.35;45.97;;;5.70;99.90;;;;;;5072111;28;20060;-61
2022/03/24 05:23:30;;;;;;;71.50;43.33;;;5.60;99.90;;;;;;5072099;28;20044;-61
2022/03/24 05:25:57;;;;;;;77.95;45.67;;;5.60;99.90;;;;;;5072003;28;20043;-61
2022/03/24 05:28:23;;;;;;;75.63;45.30;;;5.60;99.90;;;;;;5072225;28;20036;-60
2022/03/24 05:30:49;;;;;;;71.22;43.13;;;5.60;99.90;;;;;;5072056;28;20037;-61
2022/03/24 05:33:15;;;;;;;70.05;43.85;;;5.60;99.90;;;;;;5072113;28;20098;-61
2022/03/24 05:35:41;;;;;;;77.20;45.67;;;5.60;99.90;;;;;;5071641;28;20044;-61
2022/03/24 05:38:07;;;;;;;71.82;45.30;;;5.60;99.90;;;;;;5071341;28;20040;-61
2022/03/24 05:40:35;;;;;;;74.60;44.85;;;5.60;99.90;;;;;;5072148;28;20048;-60
2022/03/24 05:43:01;;;;;;;77.95;47.13;;;5.60;99.90;;;;;;5072069;28;20043;-60
2022/03/24 05:45:27;;;;;;;77.65;45.35;;;5.60;99.90;;;;;;5071654;28;20045;-60
2022/03/24 05:47:52;;;;;;;74.88;46.90;;;5.70;99.90;;;;;;5071847;28;20520;-61
2022/03/24 05:50:18;;;;;;;72.18;46.22;;;5.70;99.90;;;;;;5071749;28;20139;-61
2022/03/24 05:52:45;;;;;;;79.00;44.10;;;5.70;99.90;;;;;;5071738;28;20477;-61
2022/03/24 05:55:11;;;;;;;77.32;45.53;;;5.70;99.90;;;;;;5071800;28;20055;-61
2022/03/24 05:57:36;;;;;;;77.13;45.75;;;5.70;99.90;;;;;;5071609;28;20115;-61
2022/03/24 06:00:06;;;;;;;81.35;46.50;;;5.80;99.90;;;;;;5053727;28;20508;-61
2022/03/24 06:02:33;;;;;;;72.05;45.00;;;5.80;99.90;;;;;;5071811;28;20032;-61
2022/03/24 06:04:59;;;;;;;78.68;48.53;;;5.80;99.90;;;;;;5071631;28;20048;-61
2022/03/24 06:07:25;;;;;;;76.47;45.08;;;5.90;99.90;;;;;;5071243;28;20452;-61
2022/03/24 06:09:51;;;;;;;72.68;43.22;;;5.90;99.90;;;;;;5071591;28;20048;-61
2022/03/24 06:12:17;;;;;;;71.57;44.88;;;5.90;99.90;;;;;;5071701;28;20072;-61
2022/03/24 06:14:43;;;;;;;66.47;42.80;;;6.00;99.90;;;;;;5071562;28;20037;-61
2022/03/24 06:17:09;;;;;;;54.70;38.05;;;6.00;99.90;;;;;;5071013;28;20033;-61
2022/03/24 06:19:36;;;;;;;66.55;41.10;;;6.00;99.90;;;;;;5071368;28;20032;-61
2022/03/24 06:22:03;;;;;;;65.93;42.22;;;6.00;99.90;;;;;;5071700;28;20058;-61
2022/03/24 06:24:30;;;;;;;67.70;43.83;;;6.10;99.90;;;;;;5071654;28;20078;-61
2022/03/24 06:26:57;;;;;;;72.47;45.03;;;6.20;99.90;;;;;;5071171;28;20178;-61
2022/03/24 06:29:22;;;;;;;78.75;48.58;;;6.30;99.90;;;;;;5071494;28;20048;-61
2022/03/24 06:31:48;;;;;;;74.85;47.63;;;6.40;99.90;;;;;;5071504;28;20045;-61
2022/03/24 06:34:15;;;;;;;79.50;47.53;;;6.50;99.90;;;;;;5071099;28;20086;-61
2022/03/24 06:36:41;;;;;;;75.15;48.25;;;6.70;99.90;;;;;;5071240;28;20037;-61
2022/03/24 06:39:07;;;;;;;75.07;46.05;;;6.90;99.90;;;;;;5071301;28;20036;-61
2022/03/24 06:41:33;;;;;;;77.78;47.28;;;7.10;99.90;;;;;;5071394;28;20490;-61
2022/03/24 06:43:59;;;;;;;76.68;49.20;;;7.30;99.90;;;;;;5071326;28;20086;-60
2022/03/24 06:46:26;;;;;;;77.10;48.90;;;7.60;99.90;;;;;;5070991;28;20098;-61
2022/03/24 06:48:52;;;;;;;77.55;48.35;;;7.80;99.90;;;;;;5071360;28;20040;-61
2022/03/24 06:51:18;;;;;;;75.10;48.03;;;8.00;99.90;;;;;;5075325;28;20385;-61
2022/03/24 06:53:44;;;;;;;78.35;46.50;;;8.20;99.90;;;;;;5075125;28;20083;-61
2022/03/24 06:56:10;;;;;;;72.22;48.97;;;8.40;99.90;;;;;;5074748;28;20044;-61
2022/03/24 06:58:36;;;;;;;82.00;48.17;;;8.70;99.90;;;;;;5074905;28;20378;-61
2022/03/24 07:01:01;;;;;;;79.28;49.58;;;8.90;99.90;;;;;;5074823;28;20036;-61
2022/03/24 07:03:27;;;;;;;79.18;50.70;;;9.10;99.90;;;;;;5074665;28;20119;-61
2022/03/24 07:05:53;;;;;;;74.57;47.03;;;9.30;99.90;;;;;;5074645;28;20036;-61
2022/03/24 07:08:19;;;;;;;83.18;47.08;;;9.50;99.90;;;;;;5074710;28;20039;-61
2022/03/24 07:10:44;;;;;;;77.10;47.65;;;9.60;99.90;;;;;;5074688;28;20485;-61
2022/03/24 07:13:10;;;;;;;71.88;47.70;;;9.90;99.90;;;;;;5074297;28;20456;-61
2022/03/24 07:15:36;;;;;;;71.45;47.10;;;10.10;99.90;;;;;;5074111;28;20036;-61
2022/03/24 07:18:02;;;;;;;72.25;45.35;;;10.30;99.90;;;;;;5056201;28;20036;-60
2022/03/24 07:20:28;;;;;;;73.35;47.80;;;10.50;99.90;;;;;;5074668;28;20040;-61
2022/03/24 07:22:57;;;;;;;68.70;45.25;;;10.60;99.90;;;;;;5074318;28;20038;-61
2022/03/24 07:25:23;;;;;;;70.53;47.03;;;10.80;99.90;;;;;;5056398;28;20498;-61
2022/03/24 07:27:49;;;;;;;71.78;45.90;;;10.90;99.90;;;;;;5074224;28;20111;-61
2022/03/24 07:30:15;;;;;;;73.85;47.58;;;11.00;99.90;;;;;;5074161;28;20623;-61
2022/03/24 07:32:42;;;;;;;70.63;46.92;;;11.10;99.70;;;;;;5074012;28;20078;-61
2022/03/24 07:35:08;;;;;;;68.43;46.50;;;11.30;99.20;;;;;;5073933;28;20044;-61
2022/03/24 07:37:34;;;;;;;77.82;48.05;;;11.50;98.20;;;;;;5073716;28;20044;-61
2022/03/24 07:40:00;;;;;;;68.65;45.15;;;11.70;96.50;;;;;;5074199;28;20097;-61
2022/03/24 07:42:25;;;;;;;67.82;45.15;;;11.90;95.50;;;;;;5074216;28;20119;-61
2022/03/24 07:44:51;;;;;;;68.93;45.00;;;12.00;94.10;;;;;;5074034;28;20052;-61
2022/03/24 07:47:16;;;;;;;72.78;44.33;;;12.20;92.70;;;;;;5073256;28;20037;-61
2022/03/24 07:49:42;;;;;;;66.47;44.10;;;12.40;91.10;;;;;;5074035;28;20043;-61
2022/03/24 07:52:12;;;;;;;64.43;42.70;;;12.60;89.80;;;;;;5073941;28;20040;-61
2022/03/24 07:54:58;;;;;;;63.92;44.00;;;12.80;86.80;;;;;;5073541;28;20498;-62
2022/03/24 07:57:32;;;;;;;67.25;43.85;;;13.00;85.10;;;;;;5073406;28;20032;-61
2022/03/24 07:59:59;;;;;;;65.53;41.20;;;13.10;82.20;;;;;;5073513;28;20037;-61
2022/03/24 08:02:24;;;;;;;58.63;40.08;;;13.20;80.70;;;;;;5073809;28;20040;-61
2022/03/24 08:04:52;;;;;;;62.05;38.95;;;13.40;79.90;;;;;;5073732;28;20040;-61
2022/03/24 08:07:18;;;;;;;63.60;38.63;;;13.50;77.60;;;;;;5073201;28;20068;-61
2022/03/24 08:09:43;;;;;;;61.20;39.33;;;13.60;75.00;;;;;;5073517;28;20471;-61
2022/03/24 08:12:09;;;;;;;60.10;39.65;;;13.70;72.90;;;;;;5073202;28;20120;-61
2022/03/24 08:14:35;;;;;;;58.22;39.05;;;14.00;72.40;;;;;;5073549;28;20075;-61
2022/03/24 08:17:01;;;;;;;60.95;39.78;;;14.20;71.90;;;;;;5073061;28;20072;-61
2022/03/24 08:19:26;;;;;;;56.08;38.38;;;14.30;71.70;;;;;;5073488;28;20119;-61
2022/03/24 08:21:52;;;;;;;59.35;40.45;;;14.50;70.50;;;;;;5073278;28;20521;-61
2022/03/24 08:24:17;;;;;;;59.13;40.08;;;14.60;69.60;;;;;;5078565;28;20036;-61
2022/03/24 08:26:43;;;;;;;57.97;40.10;;;14.60;71.10;;;;;;5080523;28;20036;-61
2022/03/24 08:29:09;;;;;;;55.22;35.65;;;14.80;70.60;;;;;;5078981;28;20774;-61
2022/03/24 08:31:35;;;;;;;54.90;36.88;;;14.90;67.80;;;;;;5083171;28;20028;-61
2022/03/24 08:34:00;;;;;;;56.80;36.60;;;14.80;66.00;;;;;;5083192;28;20218;-61
2022/03/24 08:36:26;;;;;;;56.40;36.97;;;14.70;65.80;;;;;;5081196;28;20040;-61
2022/03/24 08:38:52;;;;;;;63.05;40.65;;;14.80;65.50;;;;;;5072901;28;20068;-61
2022/03/24 08:41:18;;;;;;;57.55;38.28;;;14.80;66.80;;;;;;5072941;28;20037;-61
2022/03/24 08:43:43;;;;;;;54.20;37.03;;;15.00;66.70;;;;;;5072784;28;20033;-61
2022/03/24 08:46:09;;;;;;;63.17;38.80;;;15.10;66.40;;;;;;5072425;28;20054;-61
2022/03/24 08:48:36;;;;;;;54.28;39.50;;;15.20;66.00;;;;;;5072945;28;20051;-61
2022/03/24 08:51:02;;;;;;;54.60;36.58;;;15.20;65.80;;;;;;5072776;28;20132;-61
2022/03/24 08:53:28;;;;;;;51.55;34.28;;;15.50;63.60;;;;;;5076484;28;20482;-61
2022/03/24 08:55:55;;;;;;;56.42;36.45;;;15.30;63.10;;;;;;5086102;28;20137;-61
2022/03/24 08:58:21;;;;;;;59.67;40.05;;;15.20;62.60;;;;;;5093099;28;20124;-61
2022/03/24 09:00:47;;;;;;;60.53;40.03;;;15.40;64.00;;;;;;5092776;28;20060;-61
2022/03/24 09:03:13;;;;;;;49.80;33.15;;;15.60;65.10;;;;;;5092896;28;20113;-61
2022/03/24 09:05:38;;;;;;;46.15;27.48;;;15.40;63.30;;;;;;5092465;28;20497;-61
2022/03/24 09:08:04;;;;;;;46.22;33.35;;;15.20;59.90;;;;;;5092585;28;20076;-61
2022/03/24 09:10:30;;;;;;;45.05;30.95;;;15.00;61.20;;;;;;5092498;28;20040;-61
2022/03/24 09:12:57;;;;;;;50.50;32.78;;;14.90;60.50;;;;;;5091791;28;20664;-61
2022/03/24 09:15:23;;;;;;;52.47;34.35;;;14.80;61.60;;;;;;5092214;28;20098;-61
2022/03/24 09:17:49;;;;;;;53.90;33.85;;;14.80;63.00;;;;;;5092382;28;20039;-61
2022/03/24 09:20:19;;;;;;;53.35;33.58;;;14.90;63.00;;;;;;5092506;28;20066;-61
2022/03/24 09:22:46;;;;;;;51.45;34.20;;;14.80;62.60;;;;;;5088950;28;20043;-61
2022/03/24 09:25:18;;;;;;;48.90;31.33;;;14.80;62.60;;;;;;5092132;28;20067;-61
2022/03/24 09:27:45;;;;;;;50.72;32.50;;;14.80;62.00;;;;;;5092341;28;20447;-61
2022/03/24 09:30:14;;;;;;;48.30;32.28;;;14.90;62.80;;;;;;5092243;28;20646;-61
2022/03/24 09:32:39;;;;;;;53.63;35.03;;;15.00;63.30;;;;;;5088704;28;20126;-61
2022/03/24 09:35:05;;;;;;;52.53;34.95;;;14.90;63.60;;;;;;5083382;28;20188;-61
2022/03/24 09:37:33;;;;;;;51.85;34.90;;;15.10;63.90;;;;;;5091696;28;20123;-61
2022/03/24 09:40:00;;;;;;;51.55;36.55;;;15.10;64.80;;;;;;5092010;28;20140;-61
2022/03/24 09:42:27;;;;;;;56.80;35.08;;;15.10;64.40;;;;;;5091973;28;20028;-61
2022/03/24 09:44:57;;;;;;;57.40;35.13;;;14.90;63.60;;;;;;5083489;28;20028;-61
2022/03/24 09:47:26;;;;;;;49.30;32.03;;;15.00;63.30;;;;;;5086070;28;20043;-62
2022/03/24 09:49:52;;;;;;;52.03;36.40;;;14.90;61.20;;;;;;5080593;28;20062;-61
2022/03/24 09:52:18;;;;;;;50.05;32.20;;;14.90;61.60;;;;;;5080994;28;20115;-61
2022/03/24 09:54:45;;;;;;;52.40;34.05;;;14.90;61.00;;;;;;5090957;28;20170;-61
2022/03/24 09:57:11;;;;;;;49.40;32.95;;;14.90;61.10;;;;;;5091488;28;20036;-62
2022/03/24 09:59:37;;;;;;;52.35;32.33;;;14.80;62.20;;;;;;5091701;28;20382;-62
2022/03/24 10:02:04;;;;;;;51.40;33.55;;;14.90;61.60;;;;;;5091828;28;20077;-61
2022/03/24 10:04:51;;;;;;;52.88;32.17;;;14.90;61.90;;;;;;5091702;28;20044;-62
2022/03/24 10:07:25;;;;;;;55.80;33.50;;;15.00;61.50;;;;;;5091483;28;20121;-61
2022/03/24 10:09:56;;;;;;;54.60;35.67;;;15.10;62.50;;;;;;5091731;28;20054;-61
2022/03/24 10:12:33;;;;;;;54.47;33.97;;;15.10;63.00;;;;;;5091699;28;20146;-61
2022/03/24 10:15:05;;;;;;;53.00;34.38;;;15.10;62.80;;;;;;5111091;22;20630;-63
2022/03/24 10:17:32;;;;;;;56.55;35.40;;;15.10;63.40;;;;;;5071575;28;20045;-63
2022/03/24 10:20:15;;;;;;;53.70;35.30;;;15.10;63.30;;;;;;5070627;28;20037;-63
2022/03/24 10:22:59;;;;;;;48.57;34.13;;;15.20;64.40;;;;;;5070568;28;20044;-63
2022/03/24 10:25:26;;;;;;;57.95;35.80;;;15.30;61.50;;;;;;5072813;28;20044;-63
2022/03/24 10:28:04;;;;;;;49.75;36.38;;;15.20;62.50;;;;;;5076686;28;20075;-63
2022/03/24 10:30:55;;;;;;;65.40;37.15;;;15.40;63.80;;;;;;5074624;28;20439;-63
2022/03/24 10:33:35;;;;;;;52.75;35.72;;;15.50;62.90;;;;;;5074989;28;20036;-63
2022/03/24 10:36:11;;;;;;;56.03;35.85;;;15.40;64.40;;;;;;5075234;28;20048;-63
2022/03/24 10:38:43;;;;;;;53.42;36.92;;;15.50;64.10;;;;;;5075363;28;20460;-63
2022/03/24 10:41:16;;;;;;;58.53;37.75;;;15.60;63.30;;;;;;5075249;28;20093;-62
2022/03/24 10:43:42;;;;;;;57.25;35.55;;;15.70;63.40;;;;;;5074879;28;20077;-63
2022/03/24 10:46:23;;;;;;;57.72;35.08;;;15.70;62.80;;;;;;5074966;28;20093;-63
2022/03/24 10:48:50;;;;;;;57.50;36.90;;;15.80;61.60;;;;;;5075249;28;20036;-63
2022/03/24 10:51:24;;;;;;;51.15;36.08;;;15.70;61.80;;;;;;5068690;28;20045;-64
2022/03/24 10:53:50;;;;;;;66.40;38.35;;;15.80;62.20;;;;;;5067985;28;20489;-63
2022/03/24 10:56:20;;;;;;;57.00;36.28;;;15.80;61.80;;;;;;5074320;28;20036;-64
2022/03/24 10:58:56;;;;;;;54.95;37.65;;;15.90;62.10;;;;;;5074976;28;20070;-64
2022/03/24 11:01:24;;;;;;;54.45;35.15;;;15.90;60.90;;;;;;5074986;28;20048;-64
2022/03/24 11:03:50;;;;;;;56.65;36.47;;;15.90;61.40;;;;;;5074941;28;20063;-62
2022/03/24 11:06:18;;;;;;;60.22;36.88;;;15.80;61.70;;;;;;5074732;28;20049;-63
2022/03/24 11:08:50;;;;;;;58.80;35.83;;;15.80;61.10;;;;;;5073646;28;20063;-63
2022/03/24 11:11:16;;;;;;;55.78;36.67;;;15.90;61.80;;;;;;5073683;28;20037;-63
2022/03/24 11:13:42;;;;;;;59.30;36.85;;;15.90;61.20;;;;;;5074719;28;20513;-63
2022/03/24 11:16:09;;;;;;;52.75;34.67;;;16.00;60.50;;;;;;5074037;28;20123;-62
2022/03/24 11:18:36;;;;;;;56.17;36.80;;;15.90;61.30;;;;;;5074483;28;20044;-63
2022/03/24 11:21:06;;;;;;;56.25;36.70;;;15.80;61.50;;;;;;5074552;28;20047;-63
2022/03/24 11:23:39;;;;;;;58.88;36.88;;;15.90;60.30;;;;;;5075028;28;20040;-62
2022/03/24 11:26:07;;;;;;;54.00;35.22;;;15.90;60.40;;;;;;5074357;28;20098;-64
2022/03/24 11:28:35;;;;;;;47.50;32.20;;;15.90;59.80;;;;;;5074434;28;20040;-63
2022/03/24 11:31:07;;;;;;;51.80;34.63;;;15.80;58.40;;;;;;5074439;28;20051;-63
2022/03/24 11:33:39;;;;;;;56.20;33.70;;;15.80;60.70;;;;;;5056608;28;20066;-63
2022/03/24 11:36:06;;;;;;;53.20;33.50;;;15.80;59.80;;;;;;5072287;28;20302;-65
2022/03/24 11:38:32;;;;;;;51.33;31.50;;;15.80;59.10;;;;;;5074408;28;20090;-64
2022/03/24 11:41:17;;;;;;;50.88;31.85;;;15.90;57.80;;;;;;5074275;28;20036;-64
2022/03/24 11:43:49;;;;;;;49.53;32.55;;;15.80;56.50;;;;;;5074135;28;20086;-64
2022/03/24 11:46:47;;;;;;;53.45;34.58;;;15.90;57.10;;;;;;5077585;28;20036;-64
2022/03/24 11:49:19;;;;;;;51.78;33.63;;;15.90;57.60;;;;;;5084462;28;20040;-64
2022/03/24 11:51:50;;;;;;;48.72;30.50;;;16.00;56.80;;;;;;5083812;28;20512;-64
2022/03/24 11:54:27;;;;;;;52.10;32.38;;;16.10;56.50;;;;;;5070955;28;20036;-64
2022/03/24 11:57:21;;;;;;;50.33;32.35;;;16.10;56.00;;;;;;5078653;28;20047;-63
2022/03/24 11:59:50;;;;;;;48.35;32.35;;;16.30;56.70;;;;;;5078235;28;20409;-64
2022/03/24 12:02:18;;;;;;;50.75;31.33;;;16.30;58.20;;;;;;5080138;28;20032;-64
2022/03/24 12:04:49;;;;;;;46.38;30.85;;;16.30;56.40;;;;;;5094028;28;20397;-63
2022/03/24 12:07:17;;;;;;;48.85;31.70;;;16.30;56.50;;;;;;5092329;28;20044;-62
2022/03/24 12:10:01;;;;;;;49.92;31.77;;;16.20;57.20;;;;;;5092661;28;20512;-63
2022/03/24 12:12:27;;;;;;;47.50;31.65;;;16.40;55.80;;;;;;5094329;28;20492;-65
2022/03/24 12:14:54;;;;;;;49.00;32.63;;;16.30;55.90;;;;;;5092528;28;20678;-64
2022/03/24 12:17:30;;;;;;;50.35;32.20;;;16.30;56.00;;;;;;5093479;28;20071;-64
2022/03/24 12:19:58;;;;;;;51.30;32.35;;;16.40;55.00;;;;;;5093908;28;20032;-64
2022/03/24 12:22:26;;;;;;;47.05;30.83;;;16.40;55.70;;;;;;5085939;28;20029;-64
2022/03/24 12:25:01;;;;;;;47.35;29.95;;;16.50;54.80;;;;;;5083295;28;20123;-63
2022/03/24 12:27:32;;;;;;;53.15;31.75;;;16.40;54.30;;;;;;5075239;28;20044;-64
2022/03/24 12:30:15;;;;;;;50.90;34.03;;;16.50;55.00;;;;;;5065034;28;20033;-64
2022/03/24 12:32:43;;;;;;;53.75;32.28;;;16.50;54.10;;;;;;5079920;28;20098;-63
2022/03/24 12:35:48;;;;;;;56.08;30.98;;;16.40;54.30;;;;;;5073239;28;20056;-65
2022/03/24 12:38:34;;;;;;;46.97;28.85;;;16.50;53.00;;;;;;5073430;28;20045;-64
2022/03/24 12:41:05;;;;;;;45.10;29.70;;;16.50;51.80;;;;;;5073724;28;20040;-64
2022/03/24 12:43:49;;;;;;;48.05;29.17;;;16.60;52.50;;;;;;5073400;28;20394;-64